CYRV

Revelstoke Airport

Revelstoke, British Columbia, Canada
METAR CYRV 260304Z AUTO 00000KT 1/4SM FZFG BKN002 BKN130 OVC160 M03/M03 A2960 RMK SLP046
Observed Flight Rules
Feb-26 @ 03:04 UTC (21 minutes ago) Instrument Flight Rules
Wind Visibility Clouds Conditions
Calm 1/4 miles
  • Broken at 200' AGL
  • Broken at 13,000' AGL
  • Overcast at 16,000' AGL
  • Freezing
  • Fog
Temperatures Readings
Current -3°C / 27°F
Dewpoint -3°C / 27°F
Humidity 100%
Altimeter 29.6" Hg
Pressure 1004.6 hPa
Elevation 443
METAR CYRV 260304Z AUTO 00000KT 1/4SM FZFG BKN002 BKN130 OVC160 M03/M03 A2960 RMK SLP046
Observed Flight Rules
Feb-26 @ 03:04 UTC
(21 minutes ago)
LIFR
Wind Visibility
Calm 1/4 miles
Clouds
  • Broken at 200' AGL
  • Broken at 13,000' AGL
  • Overcast at 16,000' AGL
Conditions
  • Freezing
  • Fog
Temperature Dewpoint
-3°C / 27°F -3°C / 27°F
Humidity Altimeter Pressure
100% 29.6" Hg 1004.6 hPa